createdAt,value
2023-05-25T00:02:15.685Z,13.98
2023-05-25T00:07:23.761Z,13.95
2023-05-25T00:12:30.240Z,13.89
2023-05-25T00:17:37.653Z,13.84
2023-05-25T00:22:46.564Z,13.71
2023-05-25T00:27:52.852Z,13.72
2023-05-25T00:33:00.268Z,13.77
2023-05-25T00:38:07.930Z,13.84
2023-05-25T00:43:15.380Z,13.89
2023-05-25T00:48:22.312Z,13.97
2023-05-25T00:53:30.239Z,13.99
2023-05-25T00:58:41.597Z,14.02
2023-05-25T01:03:54.358Z,14.09
2023-05-25T01:09:06.260Z,14.14
2023-05-25T01:14:13.191Z,14.17
2023-05-25T01:19:19.627Z,14.18
2023-05-25T01:24:36.814Z,14.11
2023-05-25T01:29:47.256Z,14.14
2023-05-25T01:34:55.915Z,14.14
2023-05-25T01:40:05.432Z,14.15
2023-05-25T01:45:13.551Z,14.17
2023-05-25T01:50:31.697Z,14.16
2023-05-25T01:55:48.128Z,14.17
2023-05-25T02:00:55.935Z,14.18
2023-05-25T02:06:03.219Z,14.16
2023-05-25T02:11:11.274Z,14.17
2023-05-25T02:16:18.014Z,14.15
2023-05-25T02:21:24.944Z,14.16
2023-05-25T02:26:32.951Z,14.13
2023-05-25T02:31:39.585Z,14.12
2023-05-25T02:36:46.648Z,14.09
2023-05-25T02:41:54.604Z,14.08
2023-05-25T02:47:01.850Z,14.04
2023-05-25T02:52:08.502Z,14.05
2023-05-25T02:57:16.556Z,13.99
2023-05-25T03:02:25.905Z,13.98
2023-05-25T03:07:32.841Z,13.99
2023-05-25T03:12:40.878Z,14.01
2023-05-25T03:17:47.272Z,14.02
2023-05-25T03:22:53.615Z,13.97
2023-05-25T03:28:01.214Z,14.01
2023-05-25T03:33:07.525Z,13.97
2023-05-25T03:38:20.806Z,14.00
2023-05-25T03:43:28.927Z,13.97
2023-05-25T03:48:35.090Z,13.95
2023-05-25T03:53:41.525Z,13.98
2023-05-25T03:58:49.331Z,13.94
2023-05-25T04:03:58.329Z,13.97
2023-05-25T04:09:05.499Z,13.97
2023-05-25T04:14:14.681Z,13.99
2023-05-25T04:19:22.054Z,14.05
2023-05-25T04:24:28.544Z,14.09
2023-05-25T04:29:37.691Z,14.10
2023-05-25T04:35:03.616Z,14.10
2023-05-25T04:40:21.761Z,14.13
2023-05-25T04:45:32.428Z,14.11
2023-05-25T04:50:40.556Z,14.09
2023-05-25T04:55:49.716Z,14.10
2023-05-25T05:00:57.735Z,14.08
2023-05-25T05:06:04.280Z,14.06
2023-05-25T05:11:12.658Z,14.09
2023-05-25T05:16:21.216Z,14.12
2023-05-25T05:21:27.993Z,14.17
2023-05-25T05:26:48.214Z,14.15
2023-05-25T05:32:04.635Z,14.14
2023-05-25T05:37:11.981Z,14.17
2023-05-25T05:42:18.376Z,14.22
2023-05-25T05:47:26.483Z,14.24
2023-05-25T05:52:33.184Z,14.25
2023-05-25T05:57:41.038Z,14.23
2023-05-25T06:02:49.361Z,14.20
2023-05-25T06:07:59.811Z,14.26
2023-05-25T06:13:07.770Z,14.32
2023-05-25T06:18:16.043Z,14.41
2023-05-25T06:23:22.637Z,14.47
2023-05-25T06:28:29.080Z,14.54
2023-05-25T06:33:37.053Z,14.56
2023-05-25T06:38:43.825Z,14.61
2023-05-25T06:43:50.566Z,14.69
2023-05-25T06:49:20.583Z,14.66
2023-05-25T06:54:27.088Z,14.69
2023-05-25T06:59:33.722Z,14.80
2023-05-25T07:04:41.825Z,14.84
2023-05-25T07:09:48.702Z,14.89
2023-05-25T07:14:55.142Z,14.94
2023-05-25T07:20:02.983Z,15.04
2023-05-25T07:25:12.020Z,15.08
2023-05-25T07:30:18.663Z,15.21
2023-05-25T07:35:27.043Z,15.33
2023-05-25T07:40:33.665Z,15.39
2023-05-25T07:45:40.085Z,15.46
2023-05-25T07:50:48.169Z,15.58
2023-05-25T07:55:54.695Z,15.64
2023-05-25T08:01:01.069Z,15.84
2023-05-25T08:06:09.185Z,15.89
2023-05-25T08:11:17.228Z,15.96
2023-05-25T08:16:23.935Z,15.96
2023-05-25T08:21:35.359Z,16.03
2023-05-25T08:26:53.957Z,16.07
2023-05-25T08:32:01.467Z,16.15
2023-05-25T08:37:09.517Z,16.20
2023-05-25T08:42:15.793Z,16.20
2023-05-25T08:47:24.691Z,16.25
2023-05-25T08:52:35.791Z,16.32
2023-05-25T08:57:57.017Z,16.35
2023-05-25T09:03:18.531Z,16.38
2023-05-25T09:08:27.682Z,16.36
2023-05-25T09:13:34.541Z,16.34
2023-05-25T09:18:41.764Z,16.34
2023-05-25T09:23:53.276Z,16.36
2023-05-25T09:29:00.268Z,16.33
2023-05-25T09:34:12.599Z,16.38
2023-05-25T09:39:20.593Z,16.39
2023-05-25T09:44:28.777Z,16.38
2023-05-25T09:49:35.544Z,16.54
2023-05-25T09:54:47.601Z,16.68
2023-05-25T09:59:54.990Z,16.86
2023-05-25T10:05:01.616Z,17.28
2023-05-25T10:10:15.588Z,17.61
2023-05-25T10:15:23.470Z,18.02
2023-05-25T10:20:34.273Z,18.32
2023-05-25T10:25:46.954Z,18.55
2023-05-25T10:30:56.018Z,18.66
2023-05-25T10:36:10.735Z,18.82
2023-05-25T10:41:22.424Z,18.96
2023-05-25T10:46:29.792Z,19.06
2023-05-25T10:51:44.198Z,19.08
2023-05-25T10:57:14.582Z,19.17
2023-05-25T11:02:24.068Z,19.36
2023-05-25T11:07:30.738Z,19.47
2023-05-25T11:12:40.589Z,19.48
2023-05-25T11:17:50.330Z,19.42
2023-05-25T11:22:58.346Z,19.70
2023-05-25T11:28:08.151Z,19.70
2023-05-25T11:33:14.889Z,20.04
2023-05-25T11:38:22.146Z,20.09
2023-05-25T11:43:30.624Z,20.25
2023-05-25T11:48:37.202Z,20.41
2023-05-25T11:53:47.912Z,20.54
2023-05-25T11:58:55.702Z,20.65
2023-05-25T12:04:11.868Z,20.64
2023-05-25T12:09:23.472Z,20.71
2023-05-25T12:14:32.045Z,20.71
2023-05-25T12:19:38.278Z,20.96
2023-05-25T12:24:45.012Z,21.13
2023-05-25T12:29:54.718Z,21.31
2023-05-25T12:35:08.745Z,21.49
2023-05-25T12:40:24.916Z,21.50
2023-05-25T12:45:33.143Z,21.66
2023-05-25T12:50:41.076Z,21.75
2023-05-25T12:55:47.851Z,21.71
2023-05-25T13:00:56.055Z,21.66
2023-05-25T13:06:03.176Z,21.55
2023-05-25T13:11:10.144Z,21.58
2023-05-25T13:16:18.331Z,21.61
2023-05-25T13:21:25.101Z,21.59
2023-05-25T13:26:31.780Z,21.57
2023-05-25T13:31:39.612Z,21.50
2023-05-25T13:36:46.502Z,21.49
2023-05-25T13:41:52.736Z,21.58
2023-05-25T13:47:00.760Z,21.71
2023-05-25T13:52:07.864Z,21.67
2023-05-25T13:57:14.644Z,21.66
2023-05-25T14:02:22.561Z,21.72
2023-05-25T14:07:30.324Z,21.79
2023-05-25T14:12:36.631Z,21.72
2023-05-25T14:17:44.426Z,21.73
2023-05-25T14:22:50.985Z,21.72
2023-05-25T14:27:58.285Z,21.70
2023-05-25T14:33:06.481Z,21.47
2023-05-25T14:38:13.050Z,21.45
2023-05-25T14:43:19.661Z,21.50
2023-05-25T14:48:27.914Z,21.38
2023-05-25T14:53:34.832Z,21.36
2023-05-25T14:58:41.691Z,21.28
2023-05-25T15:03:49.583Z,21.32
2023-05-25T15:08:56.076Z,21.43
2023-05-25T15:14:02.595Z,21.55
2023-05-25T15:19:12.162Z,21.59
2023-05-25T15:24:20.456Z,21.60
2023-05-25T15:29:27.541Z,21.60
2023-05-25T15:34:35.433Z,21.59
2023-05-25T15:39:41.924Z,21.59
2023-05-25T15:44:48.243Z,21.41
2023-05-25T15:49:56.630Z,21.26
2023-05-25T15:55:03.464Z,21.21
2023-05-25T16:00:12.185Z,21.26
2023-05-25T16:05:20.136Z,21.31
2023-05-25T16:10:26.725Z,21.34
2023-05-25T16:15:33.398Z,21.33
2023-05-25T16:20:41.614Z,21.31
2023-05-25T16:25:48.278Z,21.25
2023-05-25T16:30:54.670Z,21.16
2023-05-25T16:36:02.834Z,21.11
2023-05-25T16:41:09.333Z,21.07
2023-05-25T16:46:16.054Z,21.00
2023-05-25T16:51:24.044Z,20.92
2023-05-25T16:56:30.887Z,20.87
2023-05-25T17:01:37.449Z,20.78
2023-05-25T17:06:45.591Z,20.68
2023-05-25T17:11:53.667Z,20.64
2023-05-25T17:17:00.231Z,20.54
2023-05-25T17:22:08.031Z,20.49
2023-05-25T17:27:15.255Z,20.43
2023-05-25T17:32:22.722Z,20.35
2023-05-25T17:37:31.480Z,20.26
2023-05-25T17:42:38.267Z,20.15
2023-05-25T17:47:45.305Z,20.09
2023-05-25T17:52:53.853Z,19.99
2023-05-25T17:58:01.233Z,19.89
2023-05-25T18:03:07.791Z,19.73
2023-05-25T18:08:16.005Z,19.63
2023-05-25T18:13:22.647Z,19.53
2023-05-25T18:18:29.049Z,19.46
2023-05-25T18:23:37.083Z,19.36
2023-05-25T18:28:43.620Z,19.22
2023-05-25T18:33:50.505Z,19.07
2023-05-25T18:38:59.057Z,18.98
2023-05-25T18:44:05.796Z,18.83
2023-05-25T18:49:12.500Z,18.73
2023-05-25T18:54:20.970Z,18.63
2023-05-25T18:59:28.385Z,18.52
2023-05-25T19:04:35.433Z,18.41
2023-05-25T19:09:43.993Z,18.26
2023-05-25T19:14:50.715Z,18.10
2023-05-25T19:19:57.304Z,17.99
2023-05-25T19:25:06.412Z,17.82
2023-05-25T19:30:13.851Z,17.75
2023-05-25T19:35:20.345Z,17.68
2023-05-25T19:40:28.393Z,17.58
2023-05-25T19:45:35.048Z,17.44
2023-05-25T19:50:42.425Z,17.37
2023-05-25T19:55:50.882Z,17.32
2023-05-25T20:00:58.311Z,17.26
2023-05-25T20:06:05.144Z,17.21
2023-05-25T20:11:13.742Z,17.15
2023-05-25T20:16:20.526Z,17.06
2023-05-25T20:21:27.115Z,16.99
2023-05-25T20:26:35.674Z,16.87
2023-05-25T20:31:42.308Z,16.88
2023-05-25T20:36:49.240Z,16.43
2023-05-25T20:41:57.545Z,16.46
2023-05-25T20:47:04.554Z,16.44
2023-05-25T20:52:11.099Z,16.45
2023-05-25T20:57:19.374Z,16.44
2023-05-25T21:02:26.261Z,16.28
2023-05-25T21:07:34.834Z,15.93
2023-05-25T21:12:43.093Z,16.09
2023-05-25T21:17:49.990Z,16.07
2023-05-25T21:22:56.788Z,16.30
2023-05-25T21:28:05.024Z,16.52
2023-05-25T21:33:11.718Z,16.74
2023-05-25T21:38:18.670Z,16.90
2023-05-25T21:43:27.918Z,16.93
2023-05-25T21:48:34.602Z,16.95
2023-05-25T21:53:40.815Z,16.95
2023-05-25T21:58:49.446Z,16.87
2023-05-25T22:03:55.950Z,16.85
2023-05-25T22:09:02.674Z,16.78
2023-05-25T22:14:10.800Z,16.73
2023-05-25T22:19:17.720Z,16.70
2023-05-25T22:24:24.032Z,16.68
2023-05-25T22:29:31.893Z,16.61
2023-05-25T22:34:38.419Z,16.52
2023-05-25T22:39:45.036Z,-146.03
2023-05-25T22:44:53.189Z,16.43
2023-05-25T22:49:59.461Z,16.47
2023-05-25T22:55:07.928Z,16.48
2023-05-25T23:00:16.521Z,16.45
2023-05-25T23:05:23.051Z,16.42
2023-05-25T23:10:29.557Z,16.34
2023-05-25T23:15:40.290Z,16.25
2023-05-25T23:20:46.614Z,16.26
2023-05-25T23:25:52.822Z,-146.03
2023-05-25T23:31:00.754Z,-146.03
2023-05-25T23:36:08.616Z,-146.03
2023-05-25T23:41:16.810Z,-146.03
2023-05-25T23:46:25.401Z,16.26
2023-05-25T23:51:33.906Z,16.25
2023-05-25T23:56:40.497Z,16.21
